Time;durP1;ratioP1;P1;durP2;ratioP2;P2;SDS_P1;SDS_P2;PMS_P1;PMS_P2;Temp;Humidity;BMP_temperature;BMP_pressure;BME280_temperature;BME280_humidity;BME280_pressure;Samples;Min_cycle;Max_cycle;Signal;HPM_P1;HPM_P2
2022/03/13 00:00:11;;;;;;;0.00;0.00;;;;;;;-1.70;56.51;100209.59;4899855;29;20454;-78
2022/03/13 00:02:40;;;;;;;0.00;0.00;;;;;;;-1.71;55.81;100203.53;4853897;29;20103;-78
2022/03/13 00:05:12;;;;;;;0.57;0.57;;;;;;;-1.71;55.63;100200.06;4865667;29;20064;-79
2022/03/13 00:07:39;;;;;;;0.20;0.20;;;;;;;-1.72;55.63;100201.06;4872868;29;20044;-79
2022/03/13 00:10:05;;;;;;;0.00;0.00;;;;;;;-1.72;55.74;100199.28;4882507;29;20496;-78
2022/03/13 00:12:31;;;;;;;0.00;0.00;;;;;;;-1.73;55.98;100192.38;4882620;29;20065;-78
2022/03/13 00:14:59;;;;;;;0.00;0.00;;;;;;;-1.75;56.35;100189.09;4899118;29;20033;-78
2022/03/13 00:17:29;;;;;;;;;;;;;;;-1.74;55.98;100184.69;4882659;29;20036;-78
2022/03/13 00:20:02;;;;;;;0.00;0.00;;;;;;;-1.78;56.19;100174.53;4885189;29;19916;-78
2022/03/13 00:22:29;;;;;;;0.00;0.00;;;;;;;-1.77;55.60;100181.41;4864238;29;20088;-78
2022/03/13 00:24:56;;;;;;;0.00;0.00;;;;;;;-1.77;55.61;100176.16;4867947;29;20515;-78
2022/03/13 00:27:22;;;;;;;0.00;0.00;;;;;;;-1.76;55.69;100184.84;4884043;29;20040;-78
2022/03/13 00:29:48;;;;;;;0.00;0.00;;;;;;;-1.79;55.72;100178.13;4876790;29;20052;-77
2022/03/13 00:32:13;;;;;;;0.00;0.00;;;;;;;-1.77;55.59;100172.69;4859684;29;20092;-77
2022/03/13 00:34:39;;;;;;;0.00;0.00;;;;;;;-1.76;55.65;100171.72;4859642;29;20033;-77
2022/03/13 00:37:04;;;;;;;0.00;0.00;;;;;;;-1.81;55.29;100168.78;4860187;29;20037;-78
2022/03/13 00:39:30;;;;;;;0.00;0.00;;;;;;;-1.79;54.35;100178.13;4859887;29;20038;-77
2022/03/13 00:41:56;;;;;;;0.00;0.00;;;;;;;-1.79;54.17;100183.38;4861147;29;20033;-79
2022/03/13 00:45:05;;;;;;;0.00;0.00;;;;;;;-1.74;54.03;100179.44;4863125;29;20501;-82
2022/03/13 00:48:43;;;;;;;0.00;0.00;;;;;;;-1.72;53.59;100180.91;4869216;29;20097;-82
2022/03/13 00:51:33;;;;;;;;;;;;;;;-1.67;53.85;100175.13;4859986;29;20045;-80
2022/03/13 00:53:58;;;;;;;0.00;0.00;;;;;;;-1.69;53.62;100174.50;4862545;29;20376;-79
2022/03/13 00:56:24;;;;;;;0.00;0.00;;;;;;;-1.66;53.83;100164.50;4859965;29;20030;-79
2022/03/13 00:58:49;;;;;;;0.00;0.00;;;;;;;-1.69;53.40;100158.78;4859204;29;20093;-79
2022/03/13 01:01:16;;;;;;;0.00;0.00;;;;;;;-1.66;53.36;100161.88;4860847;29;20057;-80
2022/03/13 01:03:42;;;;;;;0.00;0.00;;;;;;;-1.64;53.53;100159.88;4859607;29;20193;-80
2022/03/13 01:06:09;;;;;;;0.00;0.00;;;;;;;-1.62;53.82;100157.13;4859690;29;20538;-80
2022/03/13 01:08:37;;;;;;;0.00;0.00;;;;;;;-1.62;53.34;100151.88;4871834;29;20041;-82
2022/03/13 01:11:04;;;;;;;0.00;0.00;;;;;;;-1.57;53.24;100154.00;4877901;29;20036;-79
2022/03/13 01:13:30;;;;;;;0.00;0.00;;;;;;;-1.56;53.67;100155.59;4877941;29;20065;-78
2022/03/13 01:16:21;;;;;;;0.00;0.00;;;;;;;-1.57;53.92;100154.81;4864716;29;20029;-77
2022/03/13 01:18:52;;;;;;;0.00;0.00;;;;;;;-1.61;53.97;100148.25;4860835;29;20053;-78
2022/03/13 01:21:19;;;;;;;0.00;0.00;;;;;;;-1.59;53.44;100150.72;4859695;29;20033;-78
2022/03/13 01:24:00;;;;;;;0.67;0.67;;;;;;;-1.59;53.85;100145.47;4859248;29;20034;-78
2022/03/13 01:26:25;;;;;;;0.00;0.00;;;;;;;-1.62;53.83;100144.81;4859489;29;20097;-79
2022/03/13 01:28:56;;;;;;;0.00;0.00;;;;;;;-1.66;54.15;100146.13;4859453;29;20029;-80
2022/03/13 01:31:30;;;;;;;0.00;0.00;;;;;;;-1.88;54.30;100147.69;4859368;29;20052;-79
2022/03/13 01:33:56;;;;;;;0.60;0.60;;;;;;;-1.91;54.42;100142.75;4858883;29;20046;-79
2022/03/13 01:36:23;;;;;;;0.00;0.00;;;;;;;-1.95;54.75;100134.41;4859373;29;20528;-78
2022/03/13 01:38:53;;;;;;;0.00;0.00;;;;;;;-1.92;55.06;100138.50;4859297;29;20128;-79
2022/03/13 01:41:19;;;;;;;0.00;0.00;;;;;;;-1.92;55.15;100138.50;4859612;29;20041;-78
2022/03/13 01:43:45;;;;;;;0.00;0.00;;;;;;;-1.94;54.74;100138.66;4859521;29;20391;-79
2022/03/13 01:46:10;;;;;;;0.00;0.00;;;;;;;-1.95;54.75;100136.22;4858833;29;20137;-80
2022/03/13 01:48:52;;;;;;;0.00;0.00;;;;;;;-1.95;55.11;100139.66;4859213;29;20037;-78
2022/03/13 01:51:18;;;;;;;0.10;0.10;;;;;;;-1.94;54.73;100136.03;4859379;29;20117;-78
2022/03/13 01:53:43;;;;;;;1.80;1.70;;;;;;;-1.92;54.88;100135.88;4858913;29;20078;-78
2022/03/13 01:56:09;;;;;;;0.00;0.00;;;;;;;-1.92;54.82;100125.38;4867867;29;20036;-77
2022/03/13 01:58:34;;;;;;;0.00;0.00;;;;;;;-1.92;54.63;100129.81;4877687;29;20033;-78
2022/03/13 02:01:01;;;;;;;0.00;0.00;;;;;;;-1.94;54.58;100133.41;4877073;29;20044;-78
2022/03/13 02:03:27;;;;;;;0.00;0.00;;;;;;;-1.95;55.20;100120.50;4858922;29;20093;-78
2022/03/13 02:05:53;;;;;;;0.00;0.00;;;;;;;-1.98;55.86;100137.38;4858551;29;20129;-78
2022/03/13 02:08:21;;;;;;;0.00;0.00;;;;;;;-2.00;55.85;100144.56;4858684;29;20127;-78
2022/03/13 02:10:47;;;;;;;0.00;0.00;;;;;;;-2.01;55.92;100142.13;4858848;29;20038;-78
2022/03/13 02:13:17;;;;;;;0.00;0.00;;;;;;;-2.01;55.95;100131.66;4858737;29;20072;-78
2022/03/13 02:15:43;;;;;;;0.00;0.00;;;;;;;-2.00;55.85;100133.25;4858588;29;20577;-78
2022/03/13 02:18:09;;;;;;;0.00;0.00;;;;;;;-2.02;55.78;100133.44;4872086;29;20116;-78
2022/03/13 02:20:45;;;;;;;0.00;0.00;;;;;;;-2.05;56.06;100136.41;4877467;29;20051;-78
2022/03/13 02:23:21;;;;;;;0.00;0.00;;;;;;;-2.05;56.34;100148.66;4876875;29;20203;-78
2022/03/13 02:25:56;;;;;;;0.00;0.00;;;;;;;-2.07;56.37;100145.41;4877025;29;20068;-77
2022/03/13 02:28:25;;;;;;;0.00;0.00;;;;;;;-2.10;56.22;100147.38;4876894;29;20036;-77
2022/03/13 02:30:50;;;;;;;;;;;;;;;-2.10;55.97;100138.69;4877044;29;20513;-77
2022/03/13 02:33:19;;;;;;;0.00;0.00;;;;;;;-2.13;56.19;100139.81;4878322;29;19920;-77
2022/03/13 02:35:55;;;;;;;0.00;0.00;;;;;;;-2.12;56.02;100138.03;4877301;29;20486;-77
2022/03/13 02:38:22;;;;;;;0.00;0.00;;;;;;;-2.13;56.00;100134.59;4870369;29;20041;-78
2022/03/13 02:40:48;;;;;;;0.00;0.00;;;;;;;-2.12;56.04;100132.81;4868085;29;20155;-77
2022/03/13 02:43:13;;;;;;;0.00;0.00;;;;;;;-2.13;56.30;100141.66;4878151;29;20559;-78
2022/03/13 02:45:39;;;;;;;0.00;0.00;;;;;;;-2.14;55.81;100135.56;4876998;29;20458;-77
2022/03/13 02:48:07;;;;;;;0.00;0.00;;;;;;;-2.11;55.70;100144.94;4876830;29;20027;-77
2022/03/13 02:50:34;;;;;;;0.00;0.00;;;;;;;-2.14;55.51;100140.00;4877361;29;20089;-77
2022/03/13 02:53:00;;;;;;;0.00;0.00;;;;;;;-2.14;55.45;100132.94;4877684;29;20493;-76
2022/03/13 02:55:26;;;;;;;0.00;0.00;;;;;;;-2.11;55.18;100140.50;4872766;29;20074;-76
2022/03/13 02:57:52;;;;;;;0.00;0.00;;;;;;;-2.11;54.64;100140.50;4862558;29;20029;-76
2022/03/13 03:00:19;;;;;;;0.00;0.00;;;;;;;-2.15;54.69;100146.22;4861515;29;20034;-76
2022/03/13 03:02:45;;;;;;;0.00;0.00;;;;;;;-2.16;54.22;100139.34;4862512;29;20166;-77
2022/03/13 03:05:10;;;;;;;0.00;0.00;;;;;;;-2.19;54.34;100126.59;4860753;29;20109;-76
2022/03/13 03:07:37;;;;;;;0.00;0.00;;;;;;;-2.16;54.24;100137.56;4862449;29;20525;-76
2022/03/13 03:10:04;;;;;;;0.00;0.00;;;;;;;-2.16;54.35;100134.94;4862064;29;20466;-77
2022/03/13 03:12:30;;;;;;;0.00;0.00;;;;;;;-2.14;55.03;100137.38;4862177;29;20034;-77
2022/03/13 03:14:56;;;;;;;0.00;0.00;;;;;;;-2.13;54.20;100131.97;4861102;29;20040;-77
2022/03/13 03:17:22;;;;;;;0.00;0.00;;;;;;;-2.12;54.10;100138.03;4861137;29;20037;-77
2022/03/13 03:19:47;;;;;;;0.00;0.00;;;;;;;-2.12;54.13;100128.38;4862058;29;20041;-76
2022/03/13 03:22:13;;;;;;;0.00;0.00;;;;;;;-2.12;53.98;100120.50;4879605;29;20395;-78
2022/03/13 03:24:39;;;;;;;0.00;0.00;;;;;;;-2.09;54.33;100116.72;4881002;29;20044;-77
2022/03/13 03:27:05;;;;;;;0.00;0.00;;;;;;;-2.15;54.23;100106.91;4879873;29;20412;-79
2022/03/13 03:29:30;;;;;;;0.00;0.00;;;;;;;-2.07;54.40;100117.38;4879566;29;20093;-79
2022/03/13 03:31:57;;;;;;;0.00;0.00;;;;;;;-2.05;54.12;100114.59;4879597;29;20147;-77
2022/03/13 03:34:25;;;;;;;0.00;0.00;;;;;;;-2.04;54.32;100118.84;4880936;29;20037;-78
2022/03/13 03:36:53;;;;;;;0.00;0.00;;;;;;;-2.04;54.16;100116.22;4867806;29;20046;-77
2022/03/13 03:39:20;;;;;;;0.00;0.00;;;;;;;-2.02;53.73;100119.50;4862034;29;20270;-78
2022/03/13 03:41:48;;;;;;;0.20;0.20;;;;;;;-2.03;53.95;100125.75;4860943;29;20053;-78
2022/03/13 03:44:15;;;;;;;0.00;0.00;;;;;;;-2.03;54.11;100115.25;4860831;29;20034;-79
2022/03/13 03:46:42;;;;;;;0.00;0.00;;;;;;;-2.06;54.00;100118.19;4860851;29;20559;-78
2022/03/13 03:49:08;;;;;;;0.00;0.00;;;;;;;-2.05;53.35;100119.84;4860279;29;20041;-77
2022/03/13 03:51:34;;;;;;;0.00;0.00;;;;;;;-2.04;53.55;100114.41;4861775;29;20037;-79
2022/03/13 03:54:00;;;;;;;0.00;0.00;;;;;;;-2.03;53.55;100113.44;4860736;29;20043;-78
2022/03/13 03:56:26;;;;;;;0.00;0.00;;;;;;;-2.02;53.33;100111.66;4860606;29;20033;-77
2022/03/13 03:58:51;;;;;;;0.00;0.00;;;;;;;-2.02;53.31;100101.97;4872617;29;20124;-76
2022/03/13 04:01:17;;;;;;;0.00;0.00;;;;;;;-1.97;53.33;100119.81;4878688;29;20409;-76
2022/03/13 04:03:43;;;;;;;0.00;0.00;;;;;;;-1.98;53.87;100116.41;4880055;29;20465;-76
2022/03/13 04:06:09;;;;;;;0.00;0.00;;;;;;;-2.00;53.50;100114.91;4878748;29;20477;-77
2022/03/13 04:08:35;;;;;;;0.00;0.00;;;;;;;-1.98;53.18;100115.56;4879276;29;20504;-77
2022/03/13 04:11:00;;;;;;;0.00;0.00;;;;;;;-1.94;53.44;100119.50;4879034;29;20029;-77
2022/03/13 04:13:28;;;;;;;0.00;0.00;;;;;;;-1.98;53.61;100113.78;4879175;29;20057;-77
2022/03/13 04:15:54;;;;;;;0.00;0.00;;;;;;;-2.00;54.26;100117.53;4878569;29;20504;-77
2022/03/13 04:18:20;;;;;;;0.00;0.00;;;;;;;-1.99;54.56;100109.50;4873027;29;20297;-77
2022/03/13 04:20:45;;;;;;;0.00;0.00;;;;;;;-2.03;54.44;100115.25;4860455;29;20474;-77
2022/03/13 04:23:11;;;;;;;0.00;0.00;;;;;;;-2.07;54.34;100116.59;4860307;29;20482;-77
2022/03/13 04:25:37;;;;;;;0.00;0.00;;;;;;;-2.08;54.85;100112.31;4861358;29;20048;-77
2022/03/13 04:28:04;;;;;;;0.00;0.00;;;;;;;-2.13;54.50;100126.72;4859581;29;20033;-77
2022/03/13 04:30:30;;;;;;;0.83;0.83;;;;;;;-2.19;54.90;100123.97;4861543;29;20509;-80
2022/03/13 04:32:56;;;;;;;0.00;0.00;;;;;;;-2.18;55.34;100130.84;4863649;29;20729;-79
2022/03/13 04:35:22;;;;;;;0.00;0.00;;;;;;;-2.22;55.35;100121.66;4863175;29;20033;-78
2022/03/13 04:37:47;;;;;;;0.00;0.00;;;;;;;-2.23;55.46;100128.72;4863162;29;20032;-78
2022/03/13 04:40:13;;;;;;;0.00;0.00;;;;;;;-2.24;55.77;100123.66;4874844;29;20041;-78
2022/03/13 04:42:38;;;;;;;0.00;0.00;;;;;;;-2.21;55.54;100118.91;4898387;29;20053;-80
2022/03/13 04:45:06;;;;;;;0.00;0.00;;;;;;;-2.16;55.50;100131.47;4881996;29;20436;-80
2022/03/13 04:47:32;;;;;;;0.00;0.00;;;;;;;-2.07;55.83;100133.13;4881281;29;20040;-79
2022/03/13 04:49:59;;;;;;;0.00;0.00;;;;;;;-1.96;55.35;100131.97;4894081;29;20029;-79
2022/03/13 04:52:25;;;;;;;0.00;0.00;;;;;;;-1.82;54.32;100126.03;4894371;29;20120;-78
2022/03/13 04:54:51;;;;;;;0.00;0.00;;;;;;;-1.62;54.64;100130.88;4863672;29;20068;-79
2022/03/13 05:00:31;;;;;;;0.30;0.30;;;;;;;-1.23;53.95;100132.69;4887374;29;20194;-81
2022/03/13 05:02:56;;;;;;;0.00;0.00;;;;;;;-1.15;53.28;100129.19;4864384;29;20581;-80
2022/03/13 05:05:22;;;;;;;0.00;0.00;;;;;;;-1.07;53.20;100130.97;4865293;29;20036;-81
2022/03/13 05:07:49;;;;;;;0.00;0.00;;;;;;;-1.03;52.88;100134.88;4864617;29;20096;-80
2022/03/13 05:10:35;;;;;;;0.00;0.00;;;;;;;-0.98;52.60;100143.88;4865397;29;20040;-81
2022/03/13 05:13:00;;;;;;;0.00;0.00;;;;;;;-0.95;52.29;100141.88;4864236;29;20060;-79
2022/03/13 05:15:26;;;;;;;0.00;0.00;;;;;;;-1.01;52.13;100143.41;4864340;29;20109;-80
2022/03/13 05:18:25;;;;;;;0.00;0.00;;;;;;;-0.97;51.96;100136.81;4871175;29;20033;-83
2022/03/13 05:20:52;;;;;;;0.00;0.00;;;;;;;-0.77;52.31;100144.25;4858026;29;20109;-80
2022/03/13 05:23:18;;;;;;;0.00;0.00;;;;;;;-0.71;51.47;100144.38;4883755;29;20032;-80
2022/03/13 05:25:43;;;;;;;0.00;0.00;;;;;;;-0.71;51.88;100139.13;4867133;29;20028;-79
2022/03/13 05:28:10;;;;;;;0.00;0.00;;;;;;;-0.71;52.26;100149.63;4867208;29;20116;-79
2022/03/13 05:30:39;;;;;;;0.00;0.00;;;;;;;-0.68;52.71;100144.00;4869108;29;20021;-80
2022/03/13 05:35:39;;;;;;;0.00;0.00;;;;;;;-0.67;52.64;100150.09;4895838;29;20049;-78
2022/03/13 05:38:05;;;;;;;0.00;0.00;;;;;;;-0.68;52.61;100153.72;4880658;29;20044;-78
2022/03/13 05:40:30;;;;;;;0.23;0.23;;;;;;;-0.68;52.33;100156.34;4880864;29;20020;-77
2022/03/13 05:42:58;;;;;;;0.00;0.00;;;;;;;-0.71;51.85;100152.25;4897961;29;20050;-77
2022/03/13 05:45:27;;;;;;;0.00;0.00;;;;;;;-0.70;51.83;100153.88;4880358;29;20119;-77
2022/03/13 05:48:05;;;;;;;0.00;0.00;;;;;;;-0.68;51.66;100153.72;4881751;29;20037;-78
2022/03/13 05:50:31;;;;;;;0.00;0.00;;;;;;;-0.69;51.57;100154.69;4880341;29;20028;-79
2022/03/13 05:52:56;;;;;;;0.10;0.10;;;;;;;-0.65;52.03;100163.84;4880825;29;20492;-79
2022/03/13 05:55:25;;;;;;;0.00;0.00;;;;;;;-0.58;52.64;100158.72;4880429;29;20136;-79
2022/03/13 05:57:52;;;;;;;0.00;0.00;;;;;;;-0.47;51.74;100174.09;4880340;29;20463;-79
2022/03/13 06:00:19;;;;;;;0.17;0.17;;;;;;;-0.39;51.75;100165.31;4880022;29;20029;-79
2022/03/13 06:02:47;;;;;;;0.20;0.20;;;;;;;-0.32;51.65;100171.50;4880556;29;20140;-79
2022/03/13 06:05:14;;;;;;;0.00;0.00;;;;;;;-0.28;51.41;100174.59;4898036;29;20104;-78
2022/03/13 06:07:40;;;;;;;0.00;0.00;;;;;;;-0.23;50.96;100164.34;4883315;29;20041;-78
2022/03/13 06:10:08;;;;;;;0.00;0.00;;;;;;;-0.17;50.43;100167.09;4882903;29;20028;-78
2022/03/13 06:12:35;;;;;;;0.00;0.00;;;;;;;-0.10;50.28;100172.47;4883202;29;20086;-79
2022/03/13 06:15:01;;;;;;;0.08;0.08;;;;;;;-0.05;50.17;100166.66;4882380;29;20044;-77
2022/03/13 06:17:27;;;;;;;0.10;0.10;;;;;;;0.01;49.92;100179.09;4882619;29;20576;-79
2022/03/13 06:23:23;;;;;;;0.00;0.00;;;;;;;0.19;49.38;100176.16;5702826;23;20125;31
2022/03/13 06:25:48;;;;;;;0.00;0.00;;;;;;;0.23;48.89;100176.59;4874583;29;20099;-79
2022/03/13 06:28:23;;;;;;;2.25;1.55;;;;;;;0.27;48.96;100185.75;4865811;29;20038;-80
2022/03/13 06:31:09;;;;;;;0.00;0.00;;;;;;;0.30;49.36;100183.59;4864975;29;20111;-83
2022/03/13 06:33:35;;;;;;;0.00;0.00;;;;;;;0.35;50.19;100183.06;4866817;29;20032;-79
2022/03/13 06:36:00;;;;;;;0.00;0.00;;;;;;;0.43;49.84;100177.72;4873522;29;20041;-79
2022/03/13 06:38:26;;;;;;;0.00;0.00;;;;;;;0.53;49.61;100174.00;4874592;29;20132;-80
2022/03/13 06:40:52;;;;;;;0.00;0.00;;;;;;;0.59;49.14;100181.97;4859558;29;20029;-78
2022/03/13 06:43:17;;;;;;;0.00;0.00;;;;;;;0.67;48.43;100183.69;4872915;29;20447;-78
2022/03/13 06:45:43;;;;;;;0.00;0.00;;;;;;;0.75;48.36;100175.69;4874464;29;20040;-80
2022/03/13 06:48:13;;;;;;;0.05;0.05;;;;;;;0.85;48.38;100178.03;4875684;29;20042;-80
2022/03/13 06:50:40;;;;;;;0.00;0.00;;;;;;;0.93;48.81;100175.31;4873017;29;20073;-82
2022/03/13 06:53:06;;;;;;;0.00;0.00;;;;;;;1.03;49.18;100179.47;4874980;29;20387;-80
2022/03/13 06:55:31;;;;;;;2.85;2.20;;;;;;;1.08;48.95;100171.84;4858411;29;20032;-79
2022/03/13 06:57:56;;;;;;;1.27;1.17;;;;;;;1.14;48.19;100176.34;4873588;29;20025;-78
2022/03/13 07:00:23;;;;;;;0.00;0.00;;;;;;;1.19;47.84;100165.25;4875350;29;20040;-78
2022/03/13 07:02:49;;;;;;;1.48;1.48;;;;;;;1.25;47.80;100173.22;4860580;29;20409;-79
2022/03/13 07:05:15;;;;;;;0.00;0.00;;;;;;;1.33;47.41;100172.31;4872953;29;20493;-79
2022/03/13 07:07:41;;;;;;;0.00;0.00;;;;;;;1.35;46.90;100172.91;4858928;29;20068;-78
2022/03/13 07:10:12;;;;;;;0.30;0.30;;;;;;;1.46;47.93;100166.34;4858572;29;20051;-80
2022/03/13 07:12:40;;;;;;;0.15;0.15;;;;;;;1.58;47.66;100166.66;4874400;29;20076;-79
2022/03/13 07:15:10;;;;;;;;;;;;;;;1.70;47.68;100169.59;4875931;29;20409;-78
2022/03/13 07:17:35;;;;;;;0.00;0.00;;;;;;;1.80;47.67;100172.72;4875487;29;20399;-80
2022/03/13 07:20:05;;;;;;;0.00;0.00;;;;;;;1.92;48.00;100170.41;4844282;29;20046;-78
2022/03/13 07:22:31;;;;;;;0.00;0.00;;;;;;;1.98;47.44;100172.28;4874416;29;20037;-78
2022/03/13 07:24:56;;;;;;;0.00;0.00;;;;;;;2.11;47.04;100173.38;4860465;29;20041;-78
2022/03/13 07:27:22;;;;;;;0.00;0.00;;;;;;;2.20;46.96;100180.13;4869888;29;20109;-77
2022/03/13 07:29:49;;;;;;;0.00;0.00;;;;;;;2.36;47.58;100174.53;4873758;29;20037;-79
2022/03/13 07:32:15;;;;;;;0.00;0.00;;;;;;;2.56;46.85;100171.19;4847053;29;20100;-80
2022/03/13 07:34:41;;;;;;;0.00;0.00;;;;;;;2.65;46.13;100166.56;4866776;29;20113;-78
2022/03/13 07:40:29;;;;;;;0.00;0.00;;;;;;;3.02;42.69;100173.22;4847729;29;20059;-81
2022/03/13 07:42:54;;;;;;;0.17;0.17;;;;;;;3.15;42.80;100164.53;4852770;29;20037;-78
2022/03/13 07:45:20;;;;;;;0.00;0.00;;;;;;;3.32;42.47;100172.91;4860228;29;20069;-77
2022/03/13 07:47:46;;;;;;;0.00;0.00;;;;;;;3.48;42.31;100168.28;4878595;29;20060;-78
2022/03/13 07:50:11;;;;;;;0.00;0.00;;;;;;;3.72;42.01;100168.69;4877946;29;20065;-77
2022/03/13 07:52:37;;;;;;;0.00;0.00;;;;;;;3.88;41.31;100164.81;4867738;29;20033;-77
2022/03/13 07:55:03;;;;;;;0.00;0.00;;;;;;;4.07;40.03;100161.34;4865042;29;20034;-77
2022/03/13 07:57:28;;;;;;;0.00;0.00;;;;;;;4.23;39.58;100160.09;4880016;29;20486;-77
2022/03/13 07:59:54;;;;;;;0.00;0.00;;;;;;;4.37;39.44;100170.69;4864524;29;20037;-78
2022/03/13 08:02:20;;;;;;;0.00;0.00;;;;;;;4.46;37.66;100166.78;4865136;29;20121;-79
2022/03/13 08:04:45;;;;;;;0.20;0.20;;;;;;;4.52;37.78;100173.06;4880486;29;20482;-80
2022/03/13 08:07:11;;;;;;;0.00;0.00;;;;;;;4.64;38.12;100161.63;4867268;29;20109;-79
2022/03/13 08:09:36;;;;;;;0.00;0.00;;;;;;;4.71;37.26;100166.09;4860922;29;20033;-80
2022/03/13 08:12:03;;;;;;;0.00;0.00;;;;;;;4.76;36.97;100158.31;4877145;29;20057;-79
2022/03/13 08:14:29;;;;;;;0.15;0.15;;;;;;;4.83;37.56;100156.47;4879750;29;20034;-79
2022/03/13 08:16:54;;;;;;;0.00;0.00;;;;;;;4.87;36.55;100157.69;4862222;29;20034;-79
2022/03/13 08:19:20;;;;;;;0.00;0.00;;;;;;;4.95;37.19;100157.44;4861713;29;20644;-79
2022/03/13 08:21:58;;;;;;;0.00;0.00;;;;;;;5.07;36.12;100154.13;4882286;29;20045;-81
2022/03/13 08:24:24;;;;;;;0.13;0.13;;;;;;;5.12;36.24;100154.31;4864538;29;20053;-80
2022/03/13 08:26:50;;;;;;;0.00;0.00;;;;;;;5.16;35.83;100146.72;4880554;29;20026;-78
2022/03/13 08:29:16;;;;;;;0.20;0.20;;;;;;;5.06;35.87;100153.31;5045147;23;20064;-80
2022/03/13 08:31:42;;;;;;;0.00;0.00;;;;;;;5.08;35.87;100158.41;4912038;29;20049;-81
2022/03/13 08:34:08;;;;;;;0.00;0.00;;;;;;;5.08;35.70;100143.31;4901914;29;20041;-79
2022/03/13 08:36:46;;;;;;;0.00;0.00;;;;;;;5.16;35.92;100146.72;4899161;29;20037;-79
2022/03/13 08:39:22;;;;;;;0.20;0.20;;;;;;;5.21;35.81;100153.03;4897871;29;20053;-80
2022/03/13 08:41:48;;;;;;;0.00;0.00;;;;;;;5.19;35.33;100141.00;4906102;29;20070;-78
2022/03/13 08:44:19;;;;;;;0.00;0.00;;;;;;;5.27;35.63;100141.56;4911582;29;20099;-82
2022/03/13 08:50:25;;;;;;;0.10;0.10;;;;;;;5.19;33.62;100096.75;4850822;23;20044;-82
2022/03/13 08:52:53;;;;;;;0.10;0.10;;;;;;;5.55;34.24;100140.34;4847819;29;20068;-81
2022/03/13 08:55:19;;;;;;;0.00;0.00;;;;;;;5.59;34.54;100138.91;4865101;29;20479;-79
2022/03/13 08:57:45;;;;;;;0.00;0.00;;;;;;;5.59;34.24;100138.06;4859892;29;20033;-79
2022/03/13 09:00:33;;;;;;;0.00;0.00;;;;;;;5.63;35.33;100139.28;4868125;29;20024;-82
2022/03/13 09:03:02;;;;;;;0.20;0.20;;;;;;;5.64;34.11;100127.63;5011321;23;20588;-81
2022/03/13 09:05:56;;;;;;;0.00;0.00;;;;;;;5.68;34.77;100131.47;4884165;29;20497;-81
2022/03/13 09:14:05;;;;;;;0.00;0.00;;;;;;;5.84;35.10;100124.00;5400952;23;20060;-78
2022/03/13 09:20:35;;;;;;;0.00;0.00;;;;;;;5.91;33.83;100124.75;4899189;29;20056;-80
2022/03/13 09:23:26;;;;;;;0.10;0.10;;;;;;;5.90;34.14;100113.31;5028208;23;20020;-81
2022/03/13 09:26:20;;;;;;;0.00;0.00;;;;;;;5.99;33.43;100123.69;5081763;23;20143;-85
2022/03/13 09:42:06;;;;;;;0.03;0.03;;;;;;;6.12;32.35;100118.25;5112309;23;20072;-79
2022/03/13 09:44:31;;;;;;;0.00;0.00;;;;;;;6.17;32.67;100117.59;4907753;29;20456;-77
2022/03/13 09:46:57;;;;;;;0.00;0.00;;;;;;;6.24;32.22;100115.69;4890820;29;20028;-77
2022/03/13 09:49:24;;;;;;;0.00;0.00;;;;;;;6.28;31.10;100116.84;4898545;29;20035;-77
2022/03/13 09:51:50;;;;;;;0.00;0.00;;;;;;;6.32;29.55;100106.59;4916939;29;20460;-77
2022/03/13 09:54:15;;;;;;;0.00;0.00;;;;;;;6.35;31.04;100114.94;4887069;29;20084;-75
2022/03/13 09:56:41;;;;;;;0.00;0.00;;;;;;;6.31;32.00;100105.81;4886487;29;20075;-78
2022/03/13 09:59:07;;;;;;;0.60;0.60;;;;;;;6.37;31.58;100098.78;4885233;29;20041;-78
2022/03/13 10:01:33;;;;;;;0.90;0.90;;;;;;;6.41;29.19;100097.31;4880793;29;20085;-76
2022/03/13 10:04:00;;;;;;;0.00;0.00;;;;;;;6.47;28.80;100099.06;4885448;29;20096;-78
2022/03/13 10:06:26;;;;;;;0.00;0.00;;;;;;;6.48;29.50;100098.03;4899064;29;20046;-78
2022/03/13 10:08:52;;;;;;;0.08;0.08;;;;;;;6.54;29.72;100093.66;4909224;29;20042;-78
2022/03/13 10:11:33;;;;;;;0.00;0.00;;;;;;;6.59;28.84;100088.47;4900728;29;20479;-78
2022/03/13 10:14:07;;;;;;;0.00;0.00;;;;;;;6.69;28.96;100085.31;4882469;29;20032;-78
2022/03/13 10:16:38;;;;;;;0.00;0.00;;;;;;;6.68;27.62;100079.19;4897503;29;20036;-78
2022/03/13 10:19:18;;;;;;;0.00;0.00;;;;;;;6.73;27.67;100081.97;4896570;29;20104;-78
2022/03/13 10:22:10;;;;;;;0.00;0.00;;;;;;;6.82;27.98;100066.53;4879373;29;20035;-78
2022/03/13 10:24:43;;;;;;;0.00;0.00;;;;;;;6.89;27.39;100074.41;4896196;29;20050;-78
2022/03/13 10:27:11;;;;;;;0.10;0.10;;;;;;;6.95;27.67;100070.84;4891106;29;20411;-78
2022/03/13 10:29:37;;;;;;;0.00;0.00;;;;;;;7.03;27.86;100078.50;4914770;29;20035;-78
2022/03/13 10:32:05;;;;;;;0.00;0.00;;;;;;;7.09;28.33;100068.78;4889599;29;20332;-78
2022/03/13 10:34:31;;;;;;;0.00;0.00;;;;;;;7.13;26.82;100075.28;4912908;29;20103;-78
2022/03/13 10:36:57;;;;;;;0.10;0.10;;;;;;;7.19;27.41;100070.91;4898141;29;20412;-78
2022/03/13 10:39:22;;;;;;;1.17;1.17;;;;;;;7.25;27.48;100067.34;4896537;29;20028;-78
2022/03/13 10:41:56;;;;;;;0.00;0.00;;;;;;;7.34;27.93;100068.63;4900623;29;20067;-78
2022/03/13 10:44:24;;;;;;;0.00;0.00;;;;;;;7.32;27.25;100069.88;4915289;29;20118;-78
2022/03/13 10:46:58;;;;;;;0.00;0.00;;;;;;;7.32;27.84;100060.06;4914971;29;20028;-78
2022/03/13 10:49:44;;;;;;;0.00;0.00;;;;;;;7.37;27.95;100048.72;4898209;29;20506;-78
2022/03/13 10:52:29;;;;;;;0.00;0.00;;;;;;;7.46;27.11;100060.66;4906525;29;20090;-78
2022/03/13 10:54:57;;;;;;;0.00;0.00;;;;;;;7.48;27.08;100049.78;4896392;29;20024;-78
2022/03/13 10:57:23;;;;;;;0.00;0.00;;;;;;;7.54;28.03;100048.84;4879778;29;20108;-78
2022/03/13 11:00:14;;;;;;;0.00;0.00;;;;;;;7.58;28.35;100052.69;4890336;29;20493;-78
2022/03/13 11:02:40;;;;;;;0.00;0.00;;;;;;;7.64;28.03;100053.59;4909182;29;20040;-78
2022/03/13 11:05:06;;;;;;;0.00;0.00;;;;;;;7.65;27.67;100041.91;4915144;29;20428;-77
2022/03/13 11:07:32;;;;;;;0.00;0.00;;;;;;;7.69;27.65;100035.09;4914722;29;20047;-78
2022/03/13 11:09:57;;;;;;;0.00;0.00;;;;;;;7.72;27.75;100033.81;4914870;29;20172;-77
2022/03/13 11:12:24;;;;;;;0.00;0.00;;;;;;;7.69;26.92;100027.91;4914976;29;20039;-78
2022/03/13 11:14:52;;;;;;;0.00;0.00;;;;;;;7.79;27.71;100031.84;4904007;29;20040;-76
2022/03/13 11:17:19;;;;;;;;;;;;;;;7.86;28.01;100024.56;4896565;29;20518;-77
2022/03/13 11:19:49;;;;;;;0.00;0.00;;;;;;;7.90;27.75;100007.03;4895928;29;19963;-77
2022/03/13 11:22:17;;;;;;;0.00;0.00;;;;;;;7.97;27.63;100018.38;4882345;29;20397;-77
2022/03/13 11:24:43;;;;;;;0.28;0.25;;;;;;;8.02;27.94;100009.69;4895178;29;20032;-77
2022/03/13 11:27:10;;;;;;;0.00;0.00;;;;;;;8.06;27.40;100012.69;4905560;29;20037;-77
2022/03/13 11:29:40;;;;;;;0.00;0.00;;;;;;;8.08;27.74;100002.59;4883730;29;20040;-76
2022/03/13 11:32:29;;;;;;;0.00;0.00;;;;;;;8.13;27.14;100002.69;4899976;29;20104;-76
2022/03/13 11:37:39;;;;;;;0.00;0.00;;;;;;;8.08;27.50;99995.44;4899678;29;20060;-78
2022/03/13 11:40:07;;;;;;;0.00;0.00;;;;;;;8.12;27.50;99988.56;4900052;29;20032;-77
2022/03/13 11:42:50;;;;;;;0.10;0.10;;;;;;;8.15;27.57;99995.28;4909736;29;20051;-77
2022/03/13 11:45:29;;;;;;;0.00;0.00;;;;;;;8.23;27.70;99996.78;4901825;29;20032;-77
2022/03/13 11:47:56;;;;;;;0.00;0.00;;;;;;;8.27;27.62;99996.06;4917076;29;20032;-77
2022/03/13 11:50:59;;;;;;;0.00;0.00;;;;;;;8.38;27.59;99985.59;4901385;29;20028;-78
2022/03/13 11:53:29;;;;;;;0.00;0.00;;;;;;;8.37;27.12;99992.78;4891574;29;20078;-78
2022/03/13 11:55:57;;;;;;;0.10;0.10;;;;;;;8.45;27.13;99999.59;4918190;29;20036;-77
2022/03/13 11:58:49;;;;;;;0.00;0.00;;;;;;;8.51;27.29;99990.69;4901614;29;20032;-78
2022/03/13 12:01:37;;;;;;;0.00;0.00;;;;;;;8.51;26.53;99980.00;4901632;29;20062;-77
2022/03/13 12:06:41;;;;;;;0.00;0.00;;;;;;;8.67;27.32;99981.09;4918267;29;19915;-77
2022/03/13 12:09:30;;;;;;;0.00;0.00;;;;;;;8.78;27.41;99980.22;4917649;29;20032;-77
2022/03/13 12:12:12;;;;;;;0.00;0.00;;;;;;;8.85;27.38;99968.56;4918125;29;20032;-78
2022/03/13 12:14:51;;;;;;;0.00;0.00;;;;;;;8.89;27.53;99975.84;4917909;29;20028;-77
2022/03/13 12:17:17;;;;;;;0.00;0.00;;;;;;;8.95;27.35;99966.09;4917624;29;20024;-76
2022/03/13 12:19:45;;;;;;;0.00;0.00;;;;;;;8.99;26.88;99972.53;4900249;29;20092;-77
2022/03/13 12:22:11;;;;;;;0.00;0.00;;;;;;;8.99;26.69;99956.53;4900636;29;20032;-78
2022/03/13 12:24:37;;;;;;;0.00;0.00;;;;;;;9.03;27.02;99964.88;4917956;29;20032;-76